sensor_id;sensor_type;location;lat;lon;timestamp;pressure;altitude;pressure_sealevel;temperature;humidity
71559;BME280;59382;43.852;25.952;2023-05-21T00:01:00;101157.03;;;19.78;54.41
71559;BME280;59382;43.852;25.952;2023-05-21T00:03:28;101147.44;;;19.76;54.26
71559;BME280;59382;43.852;25.952;2023-05-21T00:05:55;101140.00;;;19.71;54.27
71559;BME280;59382;43.852;25.952;2023-05-21T00:08:21;101146.66;;;19.80;54.27
71559;BME280;59382;43.852;25.952;2023-05-21T00:10:49;101142.84;;;19.81;54.10
71559;BME280;59382;43.852;25.952;2023-05-21T00:13:15;101140.66;;;19.83;54.13
71559;BME280;59382;43.852;25.952;2023-05-21T00:15:41;101130.19;;;19.75;53.79
71559;BME280;59382;43.852;25.952;2023-05-21T00:18:06;101140.94;;;19.87;53.96
71559;BME280;59382;43.852;25.952;2023-05-21T00:20:32;101145.38;;;19.93;54.02
71559;BME280;59382;43.852;25.952;2023-05-21T00:22:58;101132.53;;;19.93;53.94
71559;BME280;59382;43.852;25.952;2023-05-21T00:25:27;101136.63;;;19.96;53.87
71559;BME280;59382;43.852;25.952;2023-05-21T00:27:53;101138.59;;;20.00;53.69
71559;BME280;59382;43.852;25.952;2023-05-21T00:30:19;101122.13;;;19.95;53.29
71559;BME280;59382;43.852;25.952;2023-05-21T00:32:45;101129.31;;;20.01;53.68
71559;BME280;59382;43.852;25.952;2023-05-21T00:35:10;101120.00;;;20.02;53.76
71559;BME280;59382;43.852;25.952;2023-05-21T00:37:36;101123.81;;;20.01;53.56
71559;BME280;59382;43.852;25.952;2023-05-21T00:40:03;101112.56;;;19.98;53.72
71559;BME280;59382;43.852;25.952;2023-05-21T00:42:35;101091.91;;;19.85;53.82
71559;BME280;59382;43.852;25.952;2023-05-21T00:45:05;101114.19;;;19.99;53.73
71559;BME280;59382;43.852;25.952;2023-05-21T00:47:31;101094.13;;;19.88;53.78
71559;BME280;59382;43.852;25.952;2023-05-21T00:49:57;101099.38;;;19.95;53.88
71559;BME280;59382;43.852;25.952;2023-05-21T00:52:23;101092.50;;;19.87;53.72
71559;BME280;59382;43.852;25.952;2023-05-21T00:54:51;101092.69;;;19.81;54.04
71559;BME280;59382;43.852;25.952;2023-05-21T00:57:21;101107.53;;;19.85;54.02
71559;BME280;59382;43.852;25.952;2023-05-21T00:59:50;101092.97;;;19.79;54.09
71559;BME280;59382;43.852;25.952;2023-05-21T01:02:16;101100.91;;;19.81;54.21
71559;BME280;59382;43.852;25.952;2023-05-21T01:04:44;101091.84;;;19.75;54.13
71559;BME280;59382;43.852;25.952;2023-05-21T01:07:10;101096.28;;;19.81;54.03
71559;BME280;59382;43.852;25.952;2023-05-21T01:09:37;101082.53;;;19.71;54.15
71559;BME280;59382;43.852;25.952;2023-05-21T01:12:03;101081.94;;;19.69;54.24
71559;BME280;59382;43.852;25.952;2023-05-21T01:14:33;101088.25;;;19.70;54.35
71559;BME280;59382;43.852;25.952;2023-05-21T01:16:59;101081.34;;;19.62;54.53
71559;BME280;59382;43.852;25.952;2023-05-21T01:19:27;101092.31;;;19.67;54.50
71559;BME280;59382;43.852;25.952;2023-05-21T01:22:00;101079.47;;;19.68;54.43
71559;BME280;59382;43.852;25.952;2023-05-21T01:24:26;101089.06;;;19.70;54.74
71559;BME280;59382;43.852;25.952;2023-05-21T01:26:51;101092.91;;;19.69;54.70
71559;BME280;59382;43.852;25.952;2023-05-21T01:29:17;101084.09;;;19.67;54.42
71559;BME280;59382;43.852;25.952;2023-05-21T01:34:25;101087.94;;;19.66;55.01
71559;BME280;59382;43.852;25.952;2023-05-21T01:36:59;101091.25;;;19.68;55.06
71559;BME280;59382;43.852;25.952;2023-05-21T01:39:37;101086.31;;;19.65;55.53
71559;BME280;59382;43.852;25.952;2023-05-21T01:42:07;101085.44;;;19.60;55.46
71559;BME280;59382;43.852;25.952;2023-05-21T01:44:35;101055.34;;;19.33;55.69
71559;BME280;59382;43.852;25.952;2023-05-21T01:47:02;101075.16;;;19.45;55.75
71559;BME280;59382;43.852;25.952;2023-05-21T01:49:29;101066.31;;;19.33;56.31
71559;BME280;59382;43.852;25.952;2023-05-21T01:51:55;101072.41;;;19.40;56.19
71559;BME280;59382;43.852;25.952;2023-05-21T01:54:20;101070.22;;;19.42;56.24
71559;BME280;59382;43.852;25.952;2023-05-21T01:56:47;101072.41;;;19.40;56.20
71559;BME280;59382;43.852;25.952;2023-05-21T01:59:14;101074.09;;;19.46;56.40
71559;BME280;59382;43.852;25.952;2023-05-21T02:01:41;101066.41;;;19.43;56.09
71559;BME280;59382;43.852;25.952;2023-05-21T02:04:07;101057.94;;;19.44;56.07
71559;BME280;59382;43.852;25.952;2023-05-21T02:06:33;101077.44;;;19.53;56.06
71559;BME280;59382;43.852;25.952;2023-05-21T02:09:00;101069.81;;;19.55;55.98
71559;BME280;59382;43.852;25.952;2023-05-21T02:11:26;101075.03;;;19.62;56.03
71559;BME280;59382;43.852;25.952;2023-05-21T02:13:52;101076.41;;;19.59;55.82
71559;BME280;59382;43.852;25.952;2023-05-21T02:16:19;101081.63;;;19.61;55.87
71559;BME280;59382;43.852;25.952;2023-05-21T02:18:46;101041.22;;;19.41;55.98
71559;BME280;59382;43.852;25.952;2023-05-21T02:21:15;101075.28;;;19.60;55.88
71559;BME280;59382;43.852;25.952;2023-05-21T02:23:44;101075.03;;;19.62;55.94
71559;BME280;59382;43.852;25.952;2023-05-21T02:26:10;101070.84;;;19.49;55.90
71559;BME280;59382;43.852;25.952;2023-05-21T02:28:35;101064.97;;;19.35;56.28
71559;BME280;59382;43.852;25.952;2023-05-21T02:31:01;101082.19;;;19.36;56.34
71559;BME280;59382;43.852;25.952;2023-05-21T02:33:26;101064.03;;;19.25;56.32
71559;BME280;59382;43.852;25.952;2023-05-21T02:35:52;101067.41;;;19.32;56.33
71559;BME280;59382;43.852;25.952;2023-05-21T02:38:18;101077.78;;;19.30;56.31
71559;BME280;59382;43.852;25.952;2023-05-21T02:40:46;101045.56;;;19.10;56.33
71559;BME280;59382;43.852;25.952;2023-05-21T02:43:12;101051.66;;;19.17;56.29
71559;BME280;59382;43.852;25.952;2023-05-21T02:45:38;101044.22;;;19.13;56.41
71559;BME280;59382;43.852;25.952;2023-05-21T02:48:03;101041.00;;;19.21;56.34
71559;BME280;59382;43.852;25.952;2023-05-21T02:50:29;101060.84;;;19.33;56.28
71559;BME280;59382;43.852;25.952;2023-05-21T02:52:55;101042.13;;;19.25;56.24
71559;BME280;59382;43.852;25.952;2023-05-21T02:55:20;101045.44;;;19.27;56.50
71559;BME280;59382;43.852;25.952;2023-05-21T02:57:46;101052.06;;;19.31;56.33
71559;BME280;59382;43.852;25.952;2023-05-21T03:00:12;101060.84;;;19.33;56.20
71559;BME280;59382;43.852;25.952;2023-05-21T03:02:39;101063.03;;;19.31;56.18
71559;BME280;59382;43.852;25.952;2023-05-21T03:05:05;101073.13;;;19.30;56.17
71559;BME280;59382;43.852;25.952;2023-05-21T03:07:30;101079.97;;;19.28;56.40
71559;BME280;59382;43.852;25.952;2023-05-21T03:09:56;101072.81;;;19.27;56.69
71559;BME280;59382;43.852;25.952;2023-05-21T03:12:23;101082.88;;;19.21;56.76
71559;BME280;59382;43.852;25.952;2023-05-21T03:14:48;101074.84;;;19.15;56.63
71559;BME280;59382;43.852;25.952;2023-05-21T03:17:16;101088.59;;;19.20;56.84
71559;BME280;59382;43.852;25.952;2023-05-21T03:19:42;101091.91;;;19.22;56.49
71559;BME280;59382;43.852;25.952;2023-05-21T03:22:08;101075.41;;;19.12;56.82
71559;BME280;59382;43.852;25.952;2023-05-21T03:24:34;101079.81;;;19.18;56.59
71559;BME280;59382;43.852;25.952;2023-05-21T03:27:01;101085.28;;;19.18;56.70
71559;BME280;59382;43.852;25.952;2023-05-21T03:29:27;101093.03;;;19.26;56.75
71559;BME280;59382;43.852;25.952;2023-05-21T03:31:53;101074.84;;;19.15;56.78
71559;BME280;59382;43.852;25.952;2023-05-21T03:34:19;101087.50;;;19.21;56.56
71559;BME280;59382;43.852;25.952;2023-05-21T03:36:46;101087.75;;;19.19;56.81
71559;BME280;59382;43.852;25.952;2023-05-21T03:39:11;101097.38;;;19.22;56.86
71559;BME280;59382;43.852;25.952;2023-05-21T03:41:37;101094.38;;;19.23;56.81
71559;BME280;59382;43.852;25.952;2023-05-21T03:44:03;101083.44;;;19.23;56.85
71559;BME280;59382;43.852;25.952;2023-05-21T03:46:29;101079.28;;;19.21;56.56
71559;BME280;59382;43.852;25.952;2023-05-21T03:48:54;101095.34;;;19.34;56.50
71559;BME280;59382;43.852;25.952;2023-05-21T03:51:20;101096.47;;;19.38;56.46
71559;BME280;59382;43.852;25.952;2023-05-21T03:53:45;101082.72;;;19.33;56.49
71559;BME280;59382;43.852;25.952;2023-05-21T03:56:11;101090.47;;;19.41;56.18
71559;BME280;59382;43.852;25.952;2023-05-21T03:58:36;101107.50;;;19.48;56.11
71559;BME280;59382;43.852;25.952;2023-05-21T04:01:02;101106.97;;;19.51;56.10
71559;BME280;59382;43.852;25.952;2023-05-21T04:03:29;101093.25;;;19.46;56.15
71559;BME280;59382;43.852;25.952;2023-05-21T04:05:54;101102.03;;;19.48;56.14
71559;BME280;59382;43.852;25.952;2023-05-21T04:08:20;101103.94;;;19.48;55.98
71559;BME280;59382;43.852;25.952;2023-05-21T04:10:46;101105.28;;;19.45;56.07
71559;BME280;59382;43.852;25.952;2023-05-21T04:13:12;101104.16;;;19.41;55.94
71559;BME280;59382;43.852;25.952;2023-05-21T04:15:37;101092.34;;;19.35;55.92
71559;BME280;59382;43.852;25.952;2023-05-21T04:18:03;101101.34;;;19.36;56.29
71559;BME280;59382;43.852;25.952;2023-05-21T04:20:29;101105.84;;;19.47;56.34
71559;BME280;59382;43.852;25.952;2023-05-21T04:22:55;101097.69;;;19.52;56.31
71559;BME280;59382;43.852;25.952;2023-05-21T04:25:21;101081.22;;;19.47;56.03
71559;BME280;59382;43.852;25.952;2023-05-21T04:27:47;101110.69;;;19.67;55.95
71559;BME280;59382;43.852;25.952;2023-05-21T04:30:14;101118.13;;;19.71;56.07
71559;BME280;59382;43.852;25.952;2023-05-21T04:32:40;101107.69;;;19.73;55.97
71559;BME280;59382;43.852;25.952;2023-05-21T04:35:05;101106.63;;;19.74;55.74
71559;BME280;59382;43.852;25.952;2023-05-21T04:37:31;101108.28;;;19.75;55.85
71559;BME280;59382;43.852;25.952;2023-05-21T04:39:59;101109.91;;;19.76;55.64
71559;BME280;59382;43.852;25.952;2023-05-21T04:42:28;101110.75;;;19.77;55.86
71559;BME280;59382;43.852;25.952;2023-05-21T04:44:54;101096.72;;;19.68;55.71
71559;BME280;59382;43.852;25.952;2023-05-21T04:47:20;101108.28;;;19.75;55.85
71559;BME280;59382;43.852;25.952;2023-05-21T04:49:46;101115.41;;;19.76;55.68
71559;BME280;59382;43.852;25.952;2023-05-21T04:52:12;101087.88;;;19.61;55.77
71559;BME280;59382;43.852;25.952;2023-05-21T04:54:38;101107.16;;;19.71;55.63
71559;BME280;59382;43.852;25.952;2023-05-21T04:57:06;101101.09;;;19.69;55.78
71559;BME280;59382;43.852;25.952;2023-05-21T04:59:32;101075.81;;;19.52;55.81
71559;BME280;59382;43.852;25.952;2023-05-21T05:01:57;101095.91;;;19.68;55.58
71559;BME280;59382;43.852;25.952;2023-05-21T05:04:23;101094.53;;;19.70;55.53
71559;BME280;59382;43.852;25.952;2023-05-21T05:06:48;101106.13;;;19.77;55.42
71559;BME280;59382;43.852;25.952;2023-05-21T05:09:14;101117.66;;;19.84;55.58
71559;BME280;59382;43.852;25.952;2023-05-21T05:11:40;101091.91;;;19.80;55.41
71559;BME280;59382;43.852;25.952;2023-05-21T05:14:05;101111.44;;;19.94;55.37
71559;BME280;59382;43.852;25.952;2023-05-21T05:16:34;101102.38;;;19.93;55.44
71559;BME280;59382;43.852;25.952;2023-05-21T05:19:00;101087.06;;;19.92;55.36
71559;BME280;59382;43.852;25.952;2023-05-21T05:21:29;101091.47;;;19.98;55.26
71559;BME280;59382;43.852;25.952;2023-05-21T05:23:54;101095.91;;;20.04;55.38
71559;BME280;59382;43.852;25.952;2023-05-21T05:26:20;101092.91;;;20.06;55.17
71559;BME280;59382;43.852;25.952;2023-05-21T05:28:46;101087.19;;;20.12;55.08
71559;BME280;59382;43.852;25.952;2023-05-21T05:31:11;101099.34;;;20.26;54.99
71559;BME280;59382;43.852;25.952;2023-05-21T05:33:37;101087.25;;;20.22;54.95
71559;BME280;59382;43.852;25.952;2023-05-21T05:36:02;101091.66;;;20.28;54.62
71559;BME280;59382;43.852;25.952;2023-05-21T05:38:28;101099.97;;;20.38;54.94
71559;BME280;59382;43.852;25.952;2023-05-21T05:40:53;101110.41;;;20.46;54.76
71559;BME280;59382;43.852;25.952;2023-05-21T05:43:19;101081.34;;;20.45;54.51
71559;BME280;59382;43.852;25.952;2023-05-21T05:45:44;101079.19;;;20.52;54.22
71559;BME280;59382;43.852;25.952;2023-05-21T05:48:10;101083.09;;;20.71;54.23
71559;BME280;59382;43.852;25.952;2023-05-21T05:50:36;101093.03;;;20.92;54.06
71559;BME280;59382;43.852;25.952;2023-05-21T05:53:01;101061.50;;;20.90;53.59
71559;BME280;59382;43.852;25.952;2023-05-21T05:55:27;101093.69;;;21.29;52.93
71559;BME280;59382;43.852;25.952;2023-05-21T05:57:52;101098.66;;;21.53;52.68
71559;BME280;59382;43.852;25.952;2023-05-21T06:00:18;101073.94;;;21.63;51.49
71559;BME280;59382;43.852;25.952;2023-05-21T06:02:44;101081.66;;;21.96;51.42
71559;BME280;59382;43.852;25.952;2023-05-21T06:05:10;101093.09;;;22.33;51.00
71559;BME280;59382;43.852;25.952;2023-05-21T06:07:38;101089.16;;;22.64;50.25
71559;BME280;59382;43.852;25.952;2023-05-21T06:10:08;101086.56;;;22.87;49.66
71559;BME280;59382;43.852;25.952;2023-05-21T06:12:34;101076.81;;;23.10;48.87
71559;BME280;59382;43.852;25.952;2023-05-21T06:14:59;101083.03;;;23.31;48.55
71559;BME280;59382;43.852;25.952;2023-05-21T06:17:26;101090.28;;;23.55;48.22
71559;BME280;59382;43.852;25.952;2023-05-21T06:19:51;101073.09;;;23.68;47.63
71559;BME280;59382;43.852;25.952;2023-05-21T06:22:17;101081.72;;;23.85;47.17
71559;BME280;59382;43.852;25.952;2023-05-21T06:24:42;101076.94;;;24.01;47.03
71559;BME280;59382;43.852;25.952;2023-05-21T06:27:08;101063.31;;;24.09;46.52
71559;BME280;59382;43.852;25.952;2023-05-21T06:29:33;101057.75;;;24.14;46.31
71559;BME280;59382;43.852;25.952;2023-05-21T06:31:59;101049.03;;;24.31;46.29
71559;BME280;59382;43.852;25.952;2023-05-21T06:34:27;101071.53;;;24.61;45.84
71559;BME280;59382;43.852;25.952;2023-05-21T06:36:53;101062.03;;;24.72;45.77
71559;BME280;59382;43.852;25.952;2023-05-21T06:39:18;101059.38;;;24.86;45.48
71559;BME280;59382;43.852;25.952;2023-05-21T06:41:44;101061.63;;;25.02;45.09
71559;BME280;59382;43.852;25.952;2023-05-21T06:44:10;101038.16;;;25.00;44.21
71559;BME280;59382;43.852;25.952;2023-05-21T06:46:35;101038.34;;;25.09;44.10
71559;BME280;59382;43.852;25.952;2023-05-21T06:49:01;101048.81;;;25.25;44.00
71559;BME280;59382;43.852;25.952;2023-05-21T06:51:26;101040.25;;;25.27;44.17
71559;BME280;59382;43.852;25.952;2023-05-21T06:53:52;101045.06;;;25.40;43.88
71559;BME280;59382;43.852;25.952;2023-05-21T06:56:17;101033.81;;;25.50;43.92
71559;BME280;59382;43.852;25.952;2023-05-21T06:58:43;101046.25;;;25.66;43.63
71559;BME280;59382;43.852;25.952;2023-05-21T07:01:09;101041.44;;;25.71;43.66
71559;BME280;59382;43.852;25.952;2023-05-21T07:03:35;101044.16;;;25.90;43.38
71559;BME280;59382;43.852;25.952;2023-05-21T07:06:01;101048.91;;;26.03;42.91
71559;BME280;59382;43.852;25.952;2023-05-21T07:08:27;101041.13;;;26.05;42.82
71559;BME280;59382;43.852;25.952;2023-05-21T07:10:53;101043.69;;;26.15;42.99
71559;BME280;59382;43.852;25.952;2023-05-21T07:13:20;101029.25;;;26.18;42.57
71559;BME280;59382;43.852;25.952;2023-05-21T07:15:46;101031.19;;;26.31;42.76
71559;BME280;59382;43.852;25.952;2023-05-21T07:18:11;101039.09;;;26.51;42.52
71559;BME280;59382;43.852;25.952;2023-05-21T07:20:37;101031.19;;;26.58;42.43
71559;BME280;59382;43.852;25.952;2023-05-21T07:23:03;101029.88;;;26.69;41.75
71559;BME280;59382;43.852;25.952;2023-05-21T07:25:29;101033.34;;;26.74;41.69
71559;BME280;59382;43.852;25.952;2023-05-21T07:27:57;101029.25;;;26.72;41.27
71559;BME280;59382;43.852;25.952;2023-05-21T07:30:23;101023.28;;;26.65;41.31
71559;BME280;59382;43.852;25.952;2023-05-21T07:32:49;101009.56;;;26.60;41.47
71559;BME280;59382;43.852;25.952;2023-05-21T07:35:14;101025.88;;;26.75;41.13
71559;BME280;59382;43.852;25.952;2023-05-21T07:37:40;101022.84;;;26.85;40.36
71559;BME280;59382;43.852;25.952;2023-05-21T07:40:06;101029.22;;;26.86;40.62
71559;BME280;59382;43.852;25.952;2023-05-21T07:42:32;101018.94;;;26.86;40.65
71559;BME280;59382;43.852;25.952;2023-05-21T07:44:57;101004.72;;;26.79;40.52
71559;BME280;59382;43.852;25.952;2023-05-21T07:47:23;101019.78;;;26.87;40.68
71559;BME280;59382;43.852;25.952;2023-05-21T07:49:48;101015.25;;;26.91;40.12
71559;BME280;59382;43.852;25.952;2023-05-21T07:52:14;101013.63;;;26.90;39.93
71559;BME280;59382;43.852;25.952;2023-05-21T07:54:43;100994.53;;;26.88;39.82
71559;BME280;59382;43.852;25.952;2023-05-21T07:57:09;100996.16;;;26.89;39.71
71559;BME280;59382;43.852;25.952;2023-05-21T07:59:34;101006.63;;;26.92;39.31
71559;BME280;59382;43.852;25.952;2023-05-21T08:02:00;101003.75;;;26.97;39.17
71559;BME280;59382;43.852;25.952;2023-05-21T08:04:26;101006.72;;;27.01;39.03
71559;BME280;59382;43.852;25.952;2023-05-21T08:06:51;100997.56;;;27.00;38.93
71559;BME280;59382;43.852;25.952;2023-05-21T08:09:18;101004.38;;;27.16;38.87
71559;BME280;59382;43.852;25.952;2023-05-21T08:11:44;100999.13;;;27.28;38.66
71559;BME280;59382;43.852;25.952;2023-05-21T08:14:10;100996.25;;;27.33;37.97
71559;BME280;59382;43.852;25.952;2023-05-21T08:16:36;101006.06;;;27.39;37.85
71559;BME280;59382;43.852;25.952;2023-05-21T08:19:02;101008.31;;;27.37;37.83
71559;BME280;59382;43.852;25.952;2023-05-21T08:21:28;100996.91;;;27.39;37.99
71559;BME280;59382;43.852;25.952;2023-05-21T08:23:53;100982.00;;;27.26;37.82
71559;BME280;59382;43.852;25.952;2023-05-21T08:26:19;100997.97;;;27.29;37.84
71559;BME280;59382;43.852;25.952;2023-05-21T08:28:45;100989.91;;;27.19;37.86
71559;BME280;59382;43.852;25.952;2023-05-21T08:31:12;101007.16;;;27.16;38.13
71559;BME280;59382;43.852;25.952;2023-05-21T08:33:37;101006.00;;;27.17;38.15
71559;BME280;59382;43.852;25.952;2023-05-21T08:36:05;101011.44;;;27.22;37.80
71559;BME280;59382;43.852;25.952;2023-05-21T08:38:31;101010.91;;;27.20;37.85
71559;BME280;59382;43.852;25.952;2023-05-21T08:40:57;101008.66;;;27.22;37.65
71559;BME280;59382;43.852;25.952;2023-05-21T08:43:27;101001.59;;;27.16;37.81
71559;BME280;59382;43.852;25.952;2023-05-21T08:45:54;101004.13;;;27.04;37.78
71559;BME280;59382;43.852;25.952;2023-05-21T08:48:21;101012.13;;;27.06;37.66
71559;BME280;59382;43.852;25.952;2023-05-21T08:50:52;101014.50;;;26.99;37.90
71559;BME280;59382;43.852;25.952;2023-05-21T08:53:18;101015.06;;;26.87;37.70
71559;BME280;59382;43.852;25.952;2023-05-21T08:55:44;100992.75;;;26.70;38.18
71559;BME280;59382;43.852;25.952;2023-05-21T08:58:11;101006.06;;;26.68;38.46
71559;BME280;59382;43.852;25.952;2023-05-21T09:00:38;100999.19;;;26.52;38.20
71559;BME280;59382;43.852;25.952;2023-05-21T09:03:04;101002.19;;;26.42;38.46
71559;BME280;59382;43.852;25.952;2023-05-21T09:05:38;100991.97;;;26.29;38.30
71559;BME280;59382;43.852;25.952;2023-05-21T09:08:05;101004.66;;;26.30;38.15
71559;BME280;59382;43.852;25.952;2023-05-21T09:10:48;101015.34;;;26.23;38.12
71559;BME280;59382;43.852;25.952;2023-05-21T09:13:16;101017.38;;;26.17;38.17
71559;BME280;59382;43.852;25.952;2023-05-21T09:15:46;101016.66;;;26.12;38.32
71559;BME280;59382;43.852;25.952;2023-05-21T09:18:12;101027.53;;;26.08;38.75
71559;BME280;59382;43.852;25.952;2023-05-21T09:20:39;101000.94;;;25.94;38.90
71559;BME280;59382;43.852;25.952;2023-05-21T09:23:05;101010.97;;;25.90;39.53
71559;BME280;59382;43.852;25.952;2023-05-21T09:25:32;101010.38;;;25.93;39.11
71559;BME280;59382;43.852;25.952;2023-05-21T09:28:01;100999.75;;;26.00;39.50
71559;BME280;59382;43.852;25.952;2023-05-21T09:30:27;101008.47;;;26.07;39.53
71559;BME280;59382;43.852;25.952;2023-05-21T09:32:57;101002.81;;;26.12;39.11
71559;BME280;59382;43.852;25.952;2023-05-21T09:35:23;101006.50;;;26.21;39.42
71559;BME280;59382;43.852;25.952;2023-05-21T09:37:51;100988.91;;;26.17;39.49
71559;BME280;59382;43.852;25.952;2023-05-21T09:40:22;101010.28;;;26.38;38.94
71559;BME280;59382;43.852;25.952;2023-05-21T09:42:52;100996.97;;;26.40;38.36
71559;BME280;59382;43.852;25.952;2023-05-21T09:45:25;101006.25;;;26.58;38.60
71559;BME280;59382;43.852;25.952;2023-05-21T09:47:53;101003.19;;;26.73;37.87
71559;BME280;59382;43.852;25.952;2023-05-21T09:50:24;101002.56;;;26.76;37.44
71559;BME280;59382;43.852;25.952;2023-05-21T09:52:52;100996.72;;;26.77;37.18
71559;BME280;59382;43.852;25.952;2023-05-21T09:55:24;100994.78;;;26.78;37.12
71559;BME280;59382;43.852;25.952;2023-05-21T09:57:50;101001.09;;;26.92;37.17
71559;BME280;59382;43.852;25.952;2023-05-21T10:02:45;101001.19;;;27.01;35.89
71559;BME280;59382;43.852;25.952;2023-05-21T10:05:17;101001.50;;;26.99;36.01
71559;BME280;59382;43.852;25.952;2023-05-21T10:07:51;101000.03;;;27.02;36.36
71559;BME280;59382;43.852;25.952;2023-05-21T10:10:21;101004.75;;;27.01;36.33
71559;BME280;59382;43.852;25.952;2023-05-21T10:12:51;101000.16;;;26.97;35.97
71559;BME280;59382;43.852;25.952;2023-05-21T10:15:21;100989.25;;;26.78;35.83
71559;BME280;59382;43.852;25.952;2023-05-21T10:17:48;101000.34;;;26.64;35.93
71559;BME280;59382;43.852;25.952;2023-05-21T10:20:13;100995.94;;;26.50;36.57
71559;BME280;59382;43.852;25.952;2023-05-21T10:22:40;100993.19;;;26.50;36.66
71559;BME280;59382;43.852;25.952;2023-05-21T10:25:12;101000.72;;;26.58;36.41
71559;BME280;59382;43.852;25.952;2023-05-21T10:27:38;101004.00;;;26.60;36.61
71559;BME280;59382;43.852;25.952;2023-05-21T10:30:05;100999.09;;;26.70;36.13
71559;BME280;59382;43.852;25.952;2023-05-21T10:32:31;100996.09;;;26.80;35.38
71559;BME280;59382;43.852;25.952;2023-05-21T10:34:58;100985.72;;;26.86;34.88
71559;BME280;59382;43.852;25.952;2023-05-21T10:37:25;101004.75;;;27.01;34.38
71559;BME280;59382;43.852;25.952;2023-05-21T10:39:52;100985.03;;;27.03;34.26
71559;BME280;59382;43.852;25.952;2023-05-21T10:56:22;100981.66;;;26.56;35.99
71559;BME280;59382;43.852;25.952;2023-05-21T11:01:52;100982.59;;;26.52;35.62
71559;BME280;59382;43.852;25.952;2023-05-21T11:04:22;100979.81;;;26.52;35.60
71559;BME280;59382;43.852;25.952;2023-05-21T11:06:48;100981.34;;;26.58;35.82
71559;BME280;59382;43.852;25.952;2023-05-21T11:09:14;100971.59;;;26.74;35.82
71559;BME280;59382;43.852;25.952;2023-05-21T11:11:42;100969.31;;;26.90;35.68
71559;BME280;59382;43.852;25.952;2023-05-21T11:16:53;100968.72;;;27.23;35.05
71559;BME280;59382;43.852;25.952;2023-05-21T11:19:18;100963.75;;;27.25;35.18
71559;BME280;59382;43.852;25.952;2023-05-21T11:21:54;100960.97;;;27.25;34.84
71559;BME280;59382;43.852;25.952;2023-05-21T11:24:19;100967.75;;;27.19;34.95
71559;BME280;59382;43.852;25.952;2023-05-21T11:29:14;100960.56;;;26.96;35.23
71559;BME280;59382;43.852;25.952;2023-05-21T11:31:47;100965.84;;;26.84;35.08
71559;BME280;59382;43.852;25.952;2023-05-21T11:34:23;100959.53;;;26.70;35.23
71559;BME280;59382;43.852;25.952;2023-05-21T11:37:29;100959.41;;;26.61;35.58
71559;BME280;59382;43.852;25.952;2023-05-21T11:39:56;100936.59;;;26.56;35.56
71559;BME280;59382;43.852;25.952;2023-05-21T11:42:40;100945.16;;;26.68;35.71
71559;BME280;59382;43.852;25.952;2023-05-21T11:45:07;100941.47;;;26.72;35.02
71559;BME280;59382;43.852;25.952;2023-05-21T11:47:33;100943.19;;;26.82;35.08
71559;BME280;59382;43.852;25.952;2023-05-21T11:50:00;100928.19;;;26.83;35.06
71559;BME280;59382;43.852;25.952;2023-05-21T11:52:28;100935.25;;;26.89;34.88
71559;BME280;59382;43.852;25.952;2023-05-21T11:54:54;100934.13;;;26.90;34.91
71559;BME280;59382;43.852;25.952;2023-05-21T11:57:24;100937.69;;;26.91;34.84
71559;BME280;59382;43.852;25.952;2023-05-21T11:59:51;100927.88;;;26.84;35.04
71559;BME280;59382;43.852;25.952;2023-05-21T12:02:18;100917.22;;;26.92;35.09
71559;BME280;59382;43.852;25.952;2023-05-21T12:04:48;100922.91;;;26.95;35.34
71559;BME280;59382;43.852;25.952;2023-05-21T12:07:16;100920.66;;;26.97;34.84
71559;BME280;59382;43.852;25.952;2023-05-21T12:12:09;100908.06;;;26.69;34.93
71559;BME280;59382;43.852;25.952;2023-05-21T12:14:36;100912.78;;;26.55;34.66
71559;BME280;59382;43.852;25.952;2023-05-21T12:17:02;100918.31;;;26.55;35.00
71559;BME280;59382;43.852;25.952;2023-05-21T12:19:31;100907.19;;;26.46;34.93
71559;BME280;59382;43.852;25.952;2023-05-21T12:22:02;100891.94;;;26.35;35.23
71559;BME280;59382;43.852;25.952;2023-05-21T12:24:29;100912.03;;;26.41;35.11
71559;BME280;59382;43.852;25.952;2023-05-21T12:26:59;100898.81;;;26.38;35.36
71559;BME280;59382;43.852;25.952;2023-05-21T12:29:30;100900.81;;;26.46;35.36
71559;BME280;59382;43.852;25.952;2023-05-21T12:32:00;100900.72;;;26.51;34.68
71559;BME280;59382;43.852;25.952;2023-05-21T12:37:26;100890.84;;;26.58;33.30
71559;BME280;59382;43.852;25.952;2023-05-21T12:39:53;100899.25;;;26.53;33.28
71559;BME280;59382;43.852;25.952;2023-05-21T12:42:26;100898.72;;;26.65;32.95
71559;BME280;59382;43.852;25.952;2023-05-21T12:44:52;100894.72;;;26.71;32.82
71559;BME280;59382;43.852;25.952;2023-05-21T12:47:24;100901.03;;;26.85;32.86
71559;BME280;59382;43.852;25.952;2023-05-21T12:49:53;100895.47;;;26.85;32.00
71559;BME280;59382;43.852;25.952;2023-05-21T12:52:21;100889.06;;;26.76;32.36
71559;BME280;59382;43.852;25.952;2023-05-21T12:54:51;100906.19;;;26.78;32.18
71559;BME280;59382;43.852;25.952;2023-05-21T12:57:18;100899.25;;;26.67;32.62
71559;BME280;59382;43.852;25.952;2023-05-21T12:59:45;100898.81;;;26.73;32.44
71559;BME280;59382;43.852;25.952;2023-05-21T13:02:40;100901.28;;;26.61;32.37
71559;BME280;59382;43.852;25.952;2023-05-21T13:05:17;100886.19;;;26.45;32.26
71559;BME280;59382;43.852;25.952;2023-05-21T13:07:43;100912.41;;;26.48;32.41
71559;BME280;59382;43.852;25.952;2023-05-21T13:10:11;100905.75;;;26.35;32.77
71559;BME280;59382;43.852;25.952;2023-05-21T13:12:37;100896.06;;;26.24;33.50